Time;durP1;ratioP1;P1;durP2;ratioP2;P2;SDS_P1;SDS_P2;PMS_P1;PMS_P2;Temp;Humidity;BMP_temperature;BMP_pressure;BME280_temperature;BME280_humidity;BME280_pressure;Samples;Min_cycle;Max_cycle;Signal;HPM_P1;HPM_P2
2021/04/15 00:00:24;;;;;;;;;;;2.40;99.90;;;;;;5073367;28;20540;-74
2021/04/15 00:02:55;;;;;;;;;;;2.40;99.90;;;;;;5083404;28;19912;-75
2021/04/15 00:05:28;;;;;;;;;;;2.50;99.90;;;;;;5091807;28;19929;-74
2021/04/15 00:07:53;;;;;;;;;;;2.40;99.90;;;;;;5076168;28;19927;-74
2021/04/15 00:10:19;;;;;;;;;;;2.40;99.90;;;;;;5076847;28;19920;-75
2021/04/15 00:12:47;;;;;;;;;;;2.40;99.90;;;;;;5081260;28;19927;-74
2021/04/15 00:15:13;;;;;;;;;;;2.40;99.90;;;;;;5074100;28;19939;-74
2021/04/15 00:17:41;;;;;;;;;;;2.40;99.90;;;;;;5073895;28;20726;-74
2021/04/15 00:20:06;;;;;;;;;;;2.40;99.90;;;;;;5093772;27;19916;-74
2021/04/15 00:22:32;;;;;;;;;;;2.40;99.90;;;;;;5079269;28;19970;-74
2021/04/15 00:25:00;;;;;;;;;;;2.40;99.90;;;;;;5078608;28;19938;-74
2021/04/15 00:27:26;;;;;;;;;;;2.40;99.90;;;;;;5087236;28;19938;-74
2021/04/15 00:29:51;;;;;;;;;;;2.40;99.90;;;;;;5092528;28;19924;-74
2021/04/15 00:32:17;;;;;;;;;;;2.40;99.90;;;;;;5079176;28;19927;-74
2021/04/15 00:34:47;;;;;;;;;;;2.30;99.90;;;;;;5082979;28;20358;-74
2021/04/15 00:37:13;;;;;;;;;;;2.30;99.90;;;;;;5078716;28;19927;-74
2021/04/15 00:39:41;;;;;;;;;;;2.30;99.90;;;;;;5077075;28;19912;-74
2021/04/15 00:42:06;;;;;;;;;;;2.30;99.90;;;;;;5076860;28;19931;-74
2021/04/15 00:44:32;;;;;;;;;;;2.20;99.90;;;;;;5078505;28;19924;-74
2021/04/15 00:46:57;;;;;;;;;;;2.30;99.90;;;;;;5078297;28;19912;-74
2021/04/15 00:49:26;;;;;;;;;;;2.20;99.90;;;;;;5092541;28;19912;-74
2021/04/15 00:51:54;;;;;;;;;;;2.20;99.90;;;;;;5084681;28;19927;-75
2021/04/15 00:54:32;;;;;;;;;;;2.20;99.90;;;;;;5088996;28;19931;-74
2021/04/15 00:56:58;;;;;;;;;;;2.20;99.90;;;;;;5075892;28;20246;-74
2021/04/15 00:59:23;;;;;;;;;;;2.20;99.90;;;;;;5064841;28;19946;-74
2021/04/15 01:01:49;;;;;;;;;;;2.10;99.90;;;;;;5081218;28;20388;-74
2021/04/15 01:04:15;;;;;;;;;;;2.10;99.90;;;;;;5062313;28;19931;-74
2021/04/15 01:06:43;;;;;;;;;;;2.10;99.90;;;;;;5079991;28;19927;-75
2021/04/15 01:09:08;;;;;;;;;;;2.10;99.90;;;;;;5111118;27;19919;-74
2021/04/15 01:11:46;;;;;;;;;;;2.10;99.90;;;;;;5077753;28;19920;-74
2021/04/15 01:14:11;;;;;;;;;;;2.10;99.90;;;;;;5077099;28;19930;-75
2021/04/15 01:16:42;;;;;;;;;;;2.00;99.90;;;;;;5079869;28;19912;-74
2021/04/15 01:19:28;;;;;;;;;;;2.00;99.90;;;;;;5094914;28;19912;-74
2021/04/15 01:22:12;;;;;;;;;;;2.00;99.90;;;;;;5063835;28;19919;-74
2021/04/15 01:24:39;;;;;;;;;;;2.00;99.90;;;;;;5076136;28;19970;-74
2021/04/15 01:27:19;;;;;;;;;;;1.90;99.90;;;;;;5077373;28;19927;-74
2021/04/15 01:29:47;;;;;;;;;;;2.00;99.90;;;;;;5077467;28;19921;-74
2021/04/15 01:32:22;;;;;;;;;;;1.90;99.90;;;;;;5076784;28;19921;-74
2021/04/15 01:34:59;;;;;;;;;;;2.00;99.90;;;;;;5076126;28;19917;-74
2021/04/15 01:37:47;;;;;;;;;;;1.90;99.90;;;;;;5076607;28;19927;-74
2021/04/15 01:40:16;;;;;;;;;;;1.90;99.90;;;;;;5085723;27;20269;-74
2021/04/15 01:42:45;;;;;;;;;;;1.90;99.90;;;;;;5093492;28;20006;-75
2021/04/15 01:45:11;;;;;;;;;;;1.90;99.90;;;;;;5087521;28;20093;-74
2021/04/15 01:47:47;;;;;;;;;;;1.90;99.90;;;;;;5092515;28;19994;-74
2021/04/15 01:50:25;;;;;;;;;;;1.90;99.90;;;;;;5077676;28;19924;-74
2021/04/15 01:52:51;;;;;;;;;;;1.90;99.90;;;;;;5059166;28;19963;-74
2021/04/15 01:55:33;;;;;;;;;;;1.90;99.90;;;;;;5063250;28;19977;-74
2021/04/15 01:57:58;;;;;;;;;;;1.90;99.90;;;;;;5097500;27;19951;-74
2021/04/15 02:00:27;;;;;;;;;;;1.90;99.90;;;;;;5092140;27;20030;-74
2021/04/15 02:02:57;;;;;;;;;;;1.90;99.90;;;;;;5067273;28;20388;-74
2021/04/15 02:05:25;;;;;;;;;;;1.90;99.90;;;;;;5080193;28;19923;-74
2021/04/15 02:07:52;;;;;;;;;;;1.90;99.90;;;;;;5079339;28;20087;-74
2021/04/15 02:10:17;;;;;;;;;;;1.80;99.90;;;;;;5106051;27;19912;-75
2021/04/15 02:12:44;;;;;;;;;;;1.80;99.90;;;;;;5086511;28;19916;-74
2021/04/15 02:15:22;;;;;;;;;;;1.80;99.90;;;;;;5077718;28;20593;-74
2021/04/15 02:17:48;;;;;;;;;;;1.80;99.90;;;;;;5092099;27;19927;-75
2021/04/15 02:20:14;;;;;;;;;;;1.70;99.90;;;;;;5075991;28;19917;-75
2021/04/15 02:22:54;;;;;;;;;;;1.70;99.90;;;;;;5075966;28;19921;-75
2021/04/15 02:25:29;;;;;;;;;;;1.70;99.90;;;;;;5074661;28;19996;-75
2021/04/15 02:27:55;;;;;;;;;;;1.70;99.90;;;;;;5082193;28;19928;-75
2021/04/15 02:30:30;;;;;;;;;;;1.70;99.90;;;;;;5088756;28;20356;-75
2021/04/15 02:32:58;;;;;;;;;;;1.70;99.90;;;;;;5076109;28;20285;-75
2021/04/15 02:35:26;;;;;;;;;;;1.70;99.90;;;;;;5088287;28;20266;-76
2021/04/15 02:37:53;;;;;;;;;;;1.70;99.90;;;;;;5079671;28;19920;-76
2021/04/15 02:40:26;;;;;;;;;;;1.70;99.90;;;;;;5087105;28;20356;-75
2021/04/15 02:42:54;;;;;;;;;;;1.70;99.90;;;;;;5087783;28;20058;-75
2021/04/15 02:45:32;;;;;;;;;;;1.70;99.90;;;;;;5091234;28;20533;-76
2021/04/15 02:47:59;;;;;;;;;;;1.60;99.90;;;;;;5087928;28;19916;-76
2021/04/15 02:50:25;;;;;;;;;;;1.60;99.90;;;;;;5084211;28;19916;-76
2021/04/15 02:52:55;;;;;;;;;;;1.70;99.90;;;;;;5074569;28;20057;-76
2021/04/15 02:55:22;;;;;;;;;;;1.70;99.90;;;;;;5086357;28;19985;-76
2021/04/15 02:57:49;;;;;;;;;;;1.70;99.90;;;;;;5076715;28;19920;-76
2021/04/15 03:00:17;;;;;;;;;;;1.70;99.90;;;;;;5102177;27;19912;-76
2021/04/15 03:02:46;;;;;;;;;;;1.70;99.90;;;;;;5085990;28;19923;-76
2021/04/15 03:05:21;;;;;;;;;;;1.60;99.90;;;;;;5091299;28;19984;-77
2021/04/15 03:07:49;;;;;;;;;;;1.70;99.90;;;;;;5096065;28;19970;-77
2021/04/15 03:10:18;;;;;;;;;;;1.70;99.90;;;;;;5094800;28;19947;-77
2021/04/15 03:12:50;;;;;;;;;;;1.70;99.90;;;;;;5088397;28;19920;-75
2021/04/15 03:15:21;;;;;;;;;;;1.80;99.90;;;;;;5094064;28;19912;-76
2021/04/15 03:17:48;;;;;;;;;;;1.80;99.90;;;;;;5090414;28;19999;-76
2021/04/15 03:20:17;;;;;;;;;;;1.70;99.90;;;;;;5093797;28;19968;-77
2021/04/15 03:22:43;;;;;;;;;;;1.70;99.90;;;;;;5082152;28;19977;-77
2021/04/15 03:25:11;;;;;;;;;;;1.80;99.90;;;;;;5084891;28;19928;-76
2021/04/15 03:27:46;;;;;;;;;;;1.80;99.90;;;;;;5090045;28;19979;-76
2021/04/15 03:30:24;;;;;;;;;;;1.80;99.90;;;;;;5073596;28;19928;-76
2021/04/15 03:33:08;;;;;;;;;;;1.80;99.90;;;;;;5074566;28;19964;-77
2021/04/15 03:35:33;;;;;;;;;;;1.80;99.90;;;;;;5091174;28;20370;-76
2021/04/15 03:38:02;;;;;;;;;;;1.80;99.90;;;;;;5087721;28;19920;-77
2021/04/15 03:40:29;;;;;;;;;;;1.70;99.90;;;;;;5084842;28;19956;-77
2021/04/15 03:43:02;;;;;;;;;;;1.70;99.90;;;;;;5101715;28;19928;-77
2021/04/15 03:45:32;;;;;;;;;;;1.70;99.90;;;;;;5090387;28;20014;-77
2021/04/15 03:48:01;;;;;;;;;;;1.60;99.90;;;;;;5086480;28;20353;-78
2021/04/15 03:50:30;;;;;;;;;;;1.60;99.90;;;;;;5066682;28;19953;-78
2021/04/15 03:52:56;;;;;;;;;;;1.60;99.90;;;;;;5075498;28;19927;-77
2021/04/15 03:55:29;;;;;;;;;;;1.60;99.90;;;;;;5061659;28;19942;-77
2021/04/15 03:57:59;;;;;;;;;;;1.60;99.90;;;;;;5084061;28;20262;-77
2021/04/15 04:00:32;;;;;;;;;;;1.50;99.90;;;;;;5092661;28;19912;-77
2021/04/15 04:03:02;;;;;;;;;;;1.60;99.90;;;;;;5068247;28;19921;-78
2021/04/15 04:05:30;;;;;;;;;;;1.60;99.90;;;;;;5088064;28;19916;-77
2021/04/15 04:07:57;;;;;;;;;;;1.60;99.90;;;;;;5081278;28;19927;-78
2021/04/15 04:10:25;;;;;;;;;;;1.70;99.90;;;;;;5074120;28;19916;-78
2021/04/15 04:13:10;;;;;;;;;;;1.70;99.90;;;;;;5076889;28;19951;-77
2021/04/15 04:15:40;;;;;;;;;;;1.70;99.90;;;;;;5087804;28;19911;-77
2021/04/15 04:18:17;;;;;;;;;;;1.70;99.90;;;;;;5076081;28;20364;-77
2021/04/15 04:20:45;;;;;;;;;;;1.70;99.90;;;;;;5090859;28;19927;-77
2021/04/15 04:23:24;;;;;;;;;;;1.80;99.90;;;;;;5094587;28;19971;-77
2021/04/15 04:25:53;;;;;;;;;;;1.80;99.90;;;;;;5036628;28;1341506;-78
2021/04/15 04:28:20;;;;;;;;;;;1.80;99.90;;;;;;5090237;28;20368;-77
2021/04/15 04:30:55;;;;;;;;;;;1.80;99.90;;;;;;5076471;28;19920;-77
2021/04/15 04:33:22;;;;;;;;;;;1.80;99.90;;;;;;5073839;28;19923;-78
2021/04/15 04:35:47;;;;;;;;;;;1.80;99.90;;;;;;5062711;28;20011;-78
2021/04/15 04:38:17;;;;;;;;;;;1.80;99.90;;;;;;5078166;28;19995;-77
2021/04/15 04:40:47;;;;;;;;;;;1.80;99.90;;;;;;5092328;28;19919;-77
2021/04/15 04:43:18;;;;;;;;;;;1.80;99.90;;;;;;5072815;28;20523;-77
2021/04/15 04:45:44;;;;;;;;;;;1.80;99.90;;;;;;5091064;28;19920;-77
2021/04/15 04:48:18;;;;;;;;;;;1.80;99.90;;;;;;5093142;28;19946;-77
2021/04/15 04:50:44;;;;;;;;;;;1.80;99.90;;;;;;5085718;28;19919;-77
2021/04/15 04:53:15;;;;;;;;;;;1.80;99.90;;;;;;5085647;28;19927;-77
2021/04/15 04:55:42;;;;;;;;;;;1.80;99.90;;;;;;5084759;28;19920;-77
2021/04/15 04:58:14;;;;;;;;;;;1.80;99.90;;;;;;5086464;28;19920;-77
2021/04/15 05:00:47;;;;;;;;;;;1.80;99.90;;;;;;5074807;28;19997;-77
2021/04/15 05:03:31;;;;;;;;;;;1.80;99.90;;;;;;5061363;28;19919;-78
2021/04/15 05:06:06;;;;;;;;;;;1.80;99.90;;;;;;5078448;28;19956;-77
2021/04/15 05:08:43;;;;;;;;;;;1.80;99.90;;;;;;5093103;27;19944;-77
2021/04/15 05:11:11;;;;;;;;;;;1.80;99.90;;;;;;5077878;28;19912;-77
2021/04/15 05:13:36;;;;;;;;;;;1.90;99.90;;;;;;5078313;28;19984;-76
2021/04/15 05:16:02;;;;;;;;;;;1.80;99.90;;;;;;5092961;27;19916;-77
2021/04/15 05:18:30;;;;;;;;;;;1.80;99.90;;;;;;5096226;28;20015;-77
2021/04/15 05:20:56;;;;;;;;;;;1.90;99.90;;;;;;5075256;28;19920;-77
2021/04/15 05:23:21;;;;;;;;;;;1.90;99.90;;;;;;5095290;28;19998;-77
2021/04/15 05:26:01;;;;;;;;;;;1.90;99.90;;;;;;5080792;28;19924;-76
2021/04/15 05:28:32;;;;;;;;;;;1.90;99.90;;;;;;5081232;28;19912;-76
2021/04/15 05:30:57;;;;;;;;;;;2.00;99.90;;;;;;5108844;27;19947;-77
2021/04/15 05:33:25;;;;;;;;;;;2.10;99.90;;;;;;5088145;28;20368;-77
2021/04/15 05:36:03;;;;;;;;;;;2.10;99.90;;;;;;5105347;27;20026;-77
2021/04/15 05:38:31;;;;;;;;;;;2.20;99.90;;;;;;5092836;28;20002;-76
2021/04/15 05:40:56;;;;;;;;;;;2.20;99.90;;;;;;5091569;28;19924;-77
2021/04/15 05:43:36;;;;;;;;;;;2.30;99.90;;;;;;5076683;28;21580;-76
2021/04/15 05:46:04;;;;;;;;;;;2.30;99.90;;;;;;5067328;28;20014;-76
2021/04/15 05:48:30;;;;;;;;;;;2.40;99.90;;;;;;5071183;28;20453;-77
2021/04/15 05:50:55;;;;;;;;;;;2.40;99.90;;;;;;5079534;28;19931;-76
2021/04/15 05:53:24;;;;;;;;;;;2.40;99.90;;;;;;5073117;28;19977;-75
2021/04/15 05:55:53;;;;;;;;;;;2.50;99.90;;;;;;5102565;27;19967;-76
2021/04/15 05:58:22;;;;;;;;;;;2.60;99.90;;;;;;5063408;28;19916;-75
2021/04/15 06:01:05;;;;;;;;;;;2.60;99.90;;;;;;5073940;28;20389;-75
2021/04/15 06:03:37;;;;;;;;;;;2.70;99.90;;;;;;5093010;28;19924;-75
2021/04/15 06:06:04;;;;;;;;;;;2.70;99.90;;;;;;5106469;27;19916;-75
2021/04/15 06:08:30;;;;;;;;;;;2.80;99.90;;;;;;5084039;28;19977;-74
2021/04/15 06:11:04;;;;;;;;;;;2.80;99.90;;;;;;5090482;28;19913;-75
2021/04/15 06:13:37;;;;;;;;;;;2.80;99.90;;;;;;5086323;28;19919;-74
2021/04/15 06:16:03;;;;;;;;;;;2.90;99.90;;;;;;5084952;28;19973;-75
2021/04/15 06:18:39;;;;;;;;;;;2.90;99.90;;;;;;5091400;28;19916;-75
2021/04/15 06:21:07;;;;;;;;;;;3.00;99.90;;;;;;5087832;28;19916;-75
2021/04/15 06:23:36;;;;;;;;;;;3.00;99.90;;;;;;5091776;28;20003;-75
2021/04/15 06:26:04;;;;;;;;;;;3.00;99.90;;;;;;5107376;27;19920;-74
2021/04/15 06:28:35;;;;;;;;;;;3.00;99.90;;;;;;5078778;28;19987;-73
2021/04/15 06:31:19;;;;;;;;;;;3.00;99.90;;;;;;5073248;28;19915;-75
2021/04/15 06:33:47;;;;;;;;;;;3.10;99.90;;;;;;5090793;28;20503;-75
2021/04/15 06:36:25;;;;;;;;;;;3.20;99.90;;;;;;5087443;28;20003;-74
2021/04/15 06:38:59;;;;;;;;;;;3.20;99.90;;;;;;5091786;28;19916;-74
2021/04/15 06:41:33;;;;;;;;;;;3.20;99.90;;;;;;5090236;28;20368;-74
2021/04/15 06:44:02;;;;;;;;;;;3.20;99.90;;;;;;5092545;28;19919;-73
2021/04/15 06:46:38;;;;;;;;;;;3.30;99.90;;;;;;5077875;28;19920;-74
2021/04/15 06:49:14;;;;;;;;;;;3.30;99.90;;;;;;5090447;28;19920;-74
2021/04/15 06:51:45;;;;;;;;;;;3.30;99.90;;;;;;5104941;27;19920;-74
2021/04/15 06:54:19;;;;;;;;;;;3.40;99.90;;;;;;5105199;27;19916;-74
2021/04/15 06:57:03;;;;;;;;;;;3.40;99.90;;;;;;5090272;28;19977;-74
2021/04/15 06:59:44;;;;;;;;;;;3.40;99.90;;;;;;5086999;28;19917;-74
2021/04/15 07:02:30;;;;;;;;;;;3.40;99.90;;;;;;5089851;28;19974;-74
2021/04/15 07:05:25;;;;;;;;;;;3.50;99.90;;;;;;5092024;28;19915;-73
2021/04/15 07:08:11;;;;;;;;;;;3.50;99.90;;;;;;5083639;28;20455;-73
2021/04/15 07:10:36;;;;;;;;;;;3.60;99.90;;;;;;5092193;28;19947;-72
2021/04/15 07:13:40;;;;;;;;;;;3.70;99.90;;;;;;5089163;28;19943;-72
2021/04/15 07:16:28;;;;;;;;;;;3.80;99.90;;;;;;5047879;28;20802;-73
2021/04/15 07:18:58;;;;;;;;;;;3.90;99.90;;;;;;5063576;28;19992;-73
2021/04/15 07:21:32;;;;;;;;;;;4.00;99.90;;;;;;5091781;28;20011;-73
2021/04/15 07:24:07;;;;;;;;;;;4.00;99.90;;;;;;5091564;28;20017;-73
2021/04/15 07:26:34;;;;;;;;;;;4.10;99.90;;;;;;5090303;28;19931;-74
2021/04/15 07:29:00;;;;;;;;;;;4.20;99.90;;;;;;5089333;28;20261;-73
2021/04/15 07:31:29;;;;;;;;;;;4.30;99.90;;;;;;5090660;28;19928;-73
2021/04/15 07:33:59;;;;;;;;;;;4.30;99.90;;;;;;5089411;28;19966;-73
2021/04/15 07:36:34;;;;;;;;;;;4.40;99.90;;;;;;5104157;27;20049;-74
2021/04/15 07:39:18;;;;;;;;;;;4.40;99.90;;;;;;5090881;28;19986;-74
2021/04/15 07:41:53;;;;;;;;;;;4.50;99.90;;;;;;5091196;28;19912;-73
2021/04/15 07:44:36;;;;;;;;;;;4.60;99.90;;;;;;5091336;28;19999;-73
2021/04/15 07:47:03;;;;;;;;;;;4.70;99.90;;;;;;5106331;27;20014;-73
2021/04/15 07:49:49;;;;;;;;;;;4.70;99.90;;;;;;5090320;28;19923;-73
2021/04/15 07:52:17;;;;;;;;;;;4.80;99.90;;;;;;5089174;28;20290;-73
2021/04/15 07:55:01;;;;;;;;;;;4.90;99.90;;;;;;5089549;28;21752;-73
2021/04/15 07:57:46;;;;;;;;;;;5.00;99.90;;;;;;5088271;28;19916;-73
2021/04/15 08:00:26;;;;;;;;;;;5.10;99.90;;;;;;5092992;28;19916;-73
2021/04/15 08:03:10;;;;;;;;;;;5.30;99.90;;;;;;5092858;28;20011;-72
2021/04/15 08:05:54;;;;;;;;;;;5.30;99.60;;;;;;5094103;28;19955;-72
2021/04/15 08:08:26;;;;;;;;;;;5.50;99.90;;;;;;5093090;28;20364;-73
2021/04/15 08:11:04;;;;;;;;;;;5.70;96.40;;;;;;5089560;28;19912;-73
2021/04/15 08:13:32;;;;;;;;;;;5.90;96.80;;;;;;5089846;28;19916;-73
2021/04/15 08:16:16;;;;;;;;;;;6.00;95.40;;;;;;5088887;28;19912;-72
2021/04/15 08:18:45;;;;;;;;;;;6.20;93.90;;;;;;5089840;28;19956;-72
2021/04/15 08:21:10;;;;;;;;;;;6.30;93.70;;;;;;5086348;28;19912;-72
2021/04/15 08:23:50;;;;;;;;;;;6.50;95.90;;;;;;5089019;28;19911;-72
2021/04/15 08:26:31;;;;;;;;;;;6.70;91.20;;;;;;5091982;28;19920;-72
2021/04/15 08:29:02;;;;;;;;;;;6.90;89.40;;;;;;5095111;28;19930;-72
2021/04/15 08:31:46;;;;;;;;;;;7.00;84.50;;;;;;5093815;28;20408;-72
2021/04/15 08:34:16;;;;;;;;;;;7.20;90.90;;;;;;5079425;28;20284;-72
2021/04/15 08:36:51;;;;;;;;;;;7.30;87.10;;;;;;5076795;28;19977;-72
2021/04/15 08:39:26;;;;;;;;;;;7.30;79.40;;;;;;5103814;28;22017;-72
2021/04/15 08:42:11;;;;;;;;;;;7.40;84.60;;;;;;5082409;28;19912;-72
2021/04/15 08:44:48;;;;;;;;;;;7.60;80.30;;;;;;5091445;28;19912;-72
2021/04/15 08:47:33;;;;;;;;;;;7.70;84.20;;;;;;5122177;27;19926;-71
2021/04/15 08:50:13;;;;;;;;;;;7.80;76.90;;;;;;5097841;28;19999;-73
2021/04/15 08:52:59;;;;;;;;;;;7.90;80.50;;;;;;5091093;28;19915;-72
2021/04/15 08:55:25;;;;;;;;;;;8.20;83.40;;;;;;5091701;28;19931;-72
2021/04/15 08:58:09;;;;;;;;;;;8.40;74.60;;;;;;5088932;28;20382;-72
2021/04/15 09:00:40;;;;;;;;;;;8.40;74.30;;;;;;5090963;28;19912;-72
2021/04/15 09:03:17;;;;;;;;;;;8.20;74.50;;;;;;5090937;28;19917;-72
2021/04/15 09:05:58;;;;;;;;;;;7.80;72.50;;;;;;5091540;28;19916;-73
2021/04/15 09:08:25;;;;;;;;;;;8.00;78.40;;;;;;5089697;28;20017;-73
2021/04/15 09:10:55;;;;;;;;;;;8.00;77.00;;;;;;5096131;28;19920;-73
2021/04/15 09:13:26;;;;;;;;;;;8.10;81.10;;;;;;5106814;27;19951;-73
2021/04/15 09:15:55;;;;;;;;;;;8.10;76.50;;;;;;5093744;28;19912;-73
2021/04/15 09:18:22;;;;;;;;;;;8.30;75.90;;;;;;5098484;27;20411;-71
2021/04/15 09:20:54;;;;;;;;;;;7.70;71.00;;;;;;5088403;28;19920;-73
2021/04/15 09:23:35;;;;;;;;;;;7.80;76.90;;;;;;5094716;28;19913;-73
2021/04/15 09:26:14;;;;;;;;;;;7.60;75.60;;;;;;5110014;27;19974;-73
2021/04/15 09:28:40;;;;;;;;;;;7.50;78.10;;;;;;5091528;28;19950;-73
2021/04/15 09:31:09;;;;;;;;;;;7.30;73.60;;;;;;5091153;28;19956;-74
2021/04/15 09:33:52;;;;;;;;;;;7.40;76.50;;;;;;5090950;28;19916;-73
2021/04/15 09:36:27;;;;;;;;;;;7.40;76.20;;;;;;5096359;28;19915;-74
2021/04/15 09:39:11;;;;;;;;;;;7.40;74.50;;;;;;5091935;28;19923;-73
2021/04/15 09:41:46;;;;;;;;;;;7.40;75.50;;;;;;5108763;27;20421;-72
2021/04/15 09:44:30;;;;;;;;;;;7.40;72.80;;;;;;5090902;28;19912;-74
2021/04/15 09:46:58;;;;;;;;;;;7.70;72.80;;;;;;5091826;28;19924;-73
2021/04/15 09:49:26;;;;;;;;;;;7.90;72.90;;;;;;5086514;28;20060;-73
2021/04/15 09:51:55;;;;;;;;;;;8.00;71.10;;;;;;5094954;28;19919;-74
2021/04/15 09:54:40;;;;;;;;;;;8.30;78.50;;;;;;5077595;28;19916;-73
2021/04/15 09:57:10;;;;;;;;;;;8.30;68.20;;;;;;5108178;27;20019;-73
2021/04/15 09:59:48;;;;;;;;;;;8.40;69.90;;;;;;5095636;28;19912;-73
2021/04/15 10:02:46;;;;;;;;;;;8.50;71.30;;;;;;5094067;28;20356;-73
2021/04/15 10:05:13;;;;;;;;;;;8.60;68.60;;;;;;5071259;28;19916;-73
2021/04/15 10:07:44;;;;;;;;;;;8.40;65.90;;;;;;5093010;28;19927;-73
2021/04/15 10:10:10;;;;;;;;;;;8.30;67.00;;;;;;5096541;28;19987;-73
2021/04/15 10:12:53;;;;;;;;;;;8.40;68.80;;;;;;5091884;28;20401;-74
2021/04/15 10:15:22;;;;;;;;;;;8.50;69.90;;;;;;5091024;28;19946;-73
2021/04/15 10:17:47;;;;;;;;;;;8.40;64.20;;;;;;5092164;28;19919;-74
2021/04/15 10:20:25;;;;;;;;;;;8.60;69.50;;;;;;5094086;28;19916;-73
2021/04/15 10:23:09;;;;;;;;;;;8.60;66.10;;;;;;5088371;28;19947;-72
2021/04/15 10:25:39;;;;;;;;;;;8.50;65.60;;;;;;5094108;28;19929;-72
2021/04/15 10:28:23;;;;;;;;;;;8.60;69.60;;;;;;5081453;28;20357;-72
2021/04/15 10:31:07;;;;;;;;;;;8.10;60.70;;;;;;5093298;28;19927;-74
2021/04/15 10:33:45;;;;;;;;;;;8.10;64.70;;;;;;5091702;28;19944;-75
2021/04/15 10:36:30;;;;;;;;;;;8.20;63.00;;;;;;5089311;28;19973;-74
2021/04/15 10:39:14;;;;;;;;;;;8.20;65.10;;;;;;5093591;28;20011;-73
2021/04/15 10:41:50;;;;;;;;;;;8.00;62.60;;;;;;5092681;28;19915;-74
2021/04/15 10:44:25;;;;;;;;;;;8.00;63.50;;;;;;5090740;28;19912;-73
2021/04/15 10:46:58;;;;;;;;;;;8.10;64.40;;;;;;5088622;28;19927;-73
2021/04/15 10:49:27;;;;;;;;;;;8.30;62.00;;;;;;5091670;28;19919;-74
2021/04/15 10:51:58;;;;;;;;;;;8.60;67.20;;;;;;5089173;28;19927;-74
2021/04/15 10:54:31;;;;;;;;;;;8.90;67.50;;;;;;5086570;28;19960;-73
2021/04/15 10:57:03;;;;;;;;;;;9.20;63.10;;;;;;5092254;28;19924;-73
2021/04/15 10:59:39;;;;;;;;;;;9.30;60.30;;;;;;5091707;28;19917;-73
2021/04/15 11:02:14;;;;;;;;;;;9.50;64.60;;;;;;5091551;28;19919;-74
2021/04/15 11:04:39;;;;;;;;;;;9.60;62.10;;;;;;5090886;28;19911;-75
2021/04/15 11:07:06;;;;;;;;;;;9.60;61.00;;;;;;5090862;28;19920;-74
2021/04/15 11:09:32;;;;;;;;;;;9.50;60.80;;;;;;5088336;28;19989;-74
2021/04/15 11:11:59;;;;;;;;;;;9.20;60.90;;;;;;5092346;28;19947;-73
2021/04/15 11:14:25;;;;;;;;;;;8.90;61.70;;;;;;5090223;28;19933;-73
2021/04/15 11:16:52;;;;;;;;;;;8.80;59.60;;;;;;5083882;28;19920;-74
2021/04/15 11:19:20;;;;;;;;;;;8.90;62.20;;;;;;5085115;28;20003;-74
2021/04/15 11:21:47;;;;;;;;;;;8.80;64.00;;;;;;5086706;28;20045;-73
2021/04/15 11:24:31;;;;;;;;;;;8.80;62.30;;;;;;5101423;27;19920;-74
2021/04/15 11:27:07;;;;;;;;;;;8.70;62.70;;;;;;5089165;28;19989;-74
2021/04/15 11:29:45;;;;;;;;;;;8.40;61.50;;;;;;5106894;27;19927;-74
2021/04/15 11:32:20;;;;;;;;;;;8.40;63.10;;;;;;5088234;28;19969;-74
2021/04/15 11:34:50;;;;;;;;;;;8.30;64.60;;;;;;5090790;28;19931;-74
2021/04/15 11:37:19;;;;;;;;;;;8.20;64.10;;;;;;5093511;28;19965;-74
2021/04/15 11:39:47;;;;;;;;;;;8.30;65.40;;;;;;5086984;28;20466;-74
2021/04/15 11:42:15;;;;;;;;;;;8.20;68.00;;;;;;5094895;28;19930;-74
2021/04/15 11:44:53;;;;;;;;;;;8.30;65.30;;;;;;5091286;28;19923;-74
2021/04/15 11:47:37;;;;;;;;;;;8.30;66.00;;;;;;5087512;28;19923;-74
2021/04/15 11:50:29;;;;;;;;;;;8.30;65.80;;;;;;5088974;28;20419;-74
2021/04/15 11:53:02;;;;;;;;;;;8.30;64.90;;;;;;5084029;28;19922;-73
2021/04/15 11:55:32;;;;;;;;;;;8.50;66.90;;;;;;5102812;27;19920;-74
2021/04/15 11:58:00;;;;;;;;;;;8.40;67.60;;;;;;5091182;28;20264;-74
2021/04/15 12:00:27;;;;;;;;;;;8.40;63.20;;;;;;5086236;28;19916;-75
2021/04/15 12:02:55;;;;;;;;;;;8.50;64.00;;;;;;5087718;28;19920;-74
2021/04/15 12:05:29;;;;;;;;;;;8.50;62.30;;;;;;5086593;28;19924;-74
2021/04/15 12:07:56;;;;;;;;;;;8.70;65.90;;;;;;5088428;28;21520;-74
2021/04/15 12:10:25;;;;;;;;;;;9.10;64.20;;;;;;5086975;28;19944;-74
2021/04/15 12:12:53;;;;;;;;;;;9.20;63.90;;;;;;5103167;28;19916;-74
2021/04/15 12:15:22;;;;;;;;;;;9.10;61.70;;;;;;5122436;27;19920;-74
2021/04/15 12:17:59;;;;;;;;;;;9.00;60.10;;;;;;5099051;28;19912;-74
2021/04/15 12:20:31;;;;;;;;;;;9.00;61.30;;;;;;5129993;27;19927;-74
2021/04/15 12:22:59;;;;;;;;;;;8.90;63.20;;;;;;5091517;28;20287;-74
2021/04/15 12:25:26;;;;;;;;;;;8.80;61.80;;;;;;5109758;27;20656;-74
2021/04/15 12:28:15;;;;;;;;;;;8.80;63.20;;;;;;5095472;28;19916;-74
2021/04/15 12:30:41;;;;;;;;;;;8.50;63.50;;;;;;5096326;28;19931;-74
2021/04/15 12:33:08;;;;;;;;;;;8.50;66.10;;;;;;5092586;28;19931;-74
2021/04/15 12:35:42;;;;;;;;;;;8.30;65.80;;;;;;5098328;28;19911;-74
2021/04/15 12:38:27;;;;;;;;;;;7.90;65.70;;;;;;5094959;28;19920;-74
2021/04/15 12:40:57;;;;;;;;;;;7.60;67.10;;;;;;5110520;27;19927;-74
2021/04/15 12:43:30;;;;;;;;;;;7.50;67.40;;;;;;5091461;28;19923;-74
2021/04/15 12:45:55;;;;;;;;;;;7.40;68.50;;;;;;5096392;28;20514;-74
2021/04/15 12:48:29;;;;;;;;;;;7.40;67.70;;;;;;5095866;28;19944;-75
2021/04/15 12:50:57;;;;;;;;;;;7.50;70.90;;;;;;5076489;28;20174;-74
2021/04/15 12:53:23;;;;;;;;;;;7.60;69.40;;;;;;5091447;28;20225;-73
2021/04/15 12:55:51;;;;;;;;;;;7.70;68.60;;;;;;5097565;28;19944;-73
2021/04/15 12:58:17;;;;;;;;;;;7.70;67.80;;;;;;5091862;28;19919;-75
2021/04/15 13:00:48;;;;;;;;;;;7.80;68.60;;;;;;5091056;28;19912;-74
2021/04/15 13:03:17;;;;;;;;;;;7.80;65.90;;;;;;5094102;28;19920;-74
2021/04/15 13:05:42;;;;;;;;;;;8.00;65.70;;;;;;5094797;28;19935;-74
2021/04/15 13:08:26;;;;;;;;;;;8.30;65.30;;;;;;5093035;28;19965;-74
2021/04/15 13:10:52;;;;;;;;;;;9.00;68.00;;;;;;5093396;28;19943;-74
2021/04/15 13:13:19;;;;;;;;;;;9.90;63.10;;;;;;5093158;28;19951;-74
2021/04/15 13:15:45;;;;;;;;;;;9.30;59.50;;;;;;5092577;28;19966;-74
2021/04/15 13:18:30;;;;;;;;;;;9.60;64.30;;;;;;5092537;28;19963;-74
2021/04/15 13:21:09;;;;;;;;;;;9.90;58.70;;;;;;5094824;28;19972;-74
2021/04/15 13:23:36;;;;;;;;;;;10.40;57.80;;;;;;5094229;28;19922;-74
2021/04/15 13:26:01;;;;;;;;;;;11.30;61.00;;;;;;5093092;28;20379;-74
2021/04/15 13:28:39;;;;;;;;;;;11.30;57.50;;;;;;5093599;28;19920;-74
2021/04/15 13:31:05;;;;;;;;;;;11.40;53.40;;;;;;5094312;28;19912;-74
2021/04/15 13:33:31;;;;;;;;;;;10.80;50.10;;;;;;5092126;28;19916;-74
2021/04/15 13:35:59;;;;;;;;;;;11.20;56.40;;;;;;5090656;28;20387;-73
2021/04/15 13:38:34;;;;;;;;;;;11.30;49.90;;;;;;5099579;28;19919;-72
2021/04/15 13:41:00;;;;;;;;;;;11.10;47.60;;;;;;5095121;28;19942;-75
2021/04/15 13:43:32;;;;;;;;;;;11.40;53.10;;;;;;5095978;28;20362;-74
2021/04/15 13:46:17;;;;;;;;;;;11.80;51.40;;;;;;5090426;28;20006;-74
2021/04/15 13:48:46;;;;;;;;;;;12.10;55.50;;;;;;5089659;28;19965;-75
2021/04/15 13:51:19;;;;;;;;;;;11.70;51.40;;;;;;5095536;28;19955;-74
2021/04/15 13:53:49;;;;;;;;;;;10.80;51.20;;;;;;5093574;28;20049;-73
2021/04/15 13:56:33;;;;;;;;;;;10.00;50.40;;;;;;5091502;28;20399;-75
2021/04/15 13:59:02;;;;;;;;;;;10.00;55.30;;;;;;5091463;28;19924;-75
2021/04/15 14:01:27;;;;;;;;;;;9.80;54.70;;;;;;5077230;28;19955;-75
2021/04/15 14:03:57;;;;;;;;;;;9.40;52.50;;;;;;5089197;28;20333;-75
2021/04/15 14:06:29;;;;;;;;;;;9.50;55.10;;;;;;5120868;27;20060;-75
2021/04/15 14:09:11;;;;;;;;;;;9.40;56.80;;;;;;5091104;28;20377;-75
2021/04/15 14:11:39;;;;;;;;;;;9.20;53.20;;;;;;5089417;28;19927;-75
2021/04/15 14:14:06;;;;;;;;;;;8.90;50.90;;;;;;5089133;28;19927;-75
2021/04/15 14:16:31;;;;;;;;;;;8.90;52.40;;;;;;5092766;28;19911;-75
2021/04/15 14:19:19;;;;;;;;;;;8.90;55.00;;;;;;5097553;27;19920;-75
2021/04/15 14:21:53;;;;;;;;;;;8.90;54.40;;;;;;5089800;28;21667;-75
2021/04/15 14:24:28;;;;;;;;;;;9.00;55.20;;;;;;5088705;28;19930;-74
2021/04/15 14:26:54;;;;;;;;;;;8.80;50.90;;;;;;5091772;28;19973;-76
2021/04/15 14:29:26;;;;;;;;;;;8.80;54.30;;;;;;5089543;28;19969;-75
2021/04/15 14:31:58;;;;;;;;;;;8.60;53.10;;;;;;5073868;28;20001;-76
2021/04/15 14:34:32;;;;;;;;;;;8.60;54.80;;;;;;5094343;28;19912;-76
2021/04/15 14:37:00;;;;;;;;;;;8.70;55.20;;;;;;5091613;28;19916;-76
2021/04/15 14:39:36;;;;;;;;;;;8.90;57.90;;;;;;5111179;27;20272;-74
2021/04/15 14:42:04;;;;;;;;;;;9.10;54.20;;;;;;5095264;28;19923;-75
2021/04/15 14:44:30;;;;;;;;;;;9.40;55.70;;;;;;5092569;28;20371;-75
2021/04/15 14:46:55;;;;;;;;;;;9.60;56.90;;;;;;5095507;28;19923;-75
2021/04/15 14:49:27;;;;;;;;;;;9.70;54.50;;;;;;5095660;28;19912;-74
2021/04/15 14:52:12;;;;;;;;;;;9.70;52.60;;;;;;5090127;28;19951;-74
2021/04/15 14:54:38;;;;;;;;;;;9.90;53.90;;;;;;5091096;28;19920;-75
2021/04/15 14:57:04;;;;;;;;;;;9.70;52.60;;;;;;5092773;28;19923;-74